Port Jefferson, New York
Current Conditions -  °F | °C
As of 10:56 PM on Tuesday 21 Oct 2014 (Local Time) from KISP Reporting Station
Moderate Rain Moderate Rain  
Wind Chill: 57°   Ceiling: 4800
Heat Index: 57°   Visibility: 8mi
Dew Point: 54°   Wind: 5mph
Humidity: 89%   Direction: 350°N
Pressure: 29.9"   Gusts: NA
Location:  40.95°N, 73.07°W
Report Text: KISP 220256Z 35004KT 8SM RA SCT037 BKN048 BKN070 OVC210 14/12 A2990 RMK AO2 RAB49 SLP125 P0000 60000 T01390122 51017
Loading
Personal Weather Stations






























Interactive Weather Map
Tropical Storm Tracking
New forecast layout! Learn more

10-Day Weather Forecast

Advertisements
Track Severe Weather on mobile